createdAt,value
2022-08-12T00:00:11.112Z,99486.19
2022-08-12T00:02:56.541Z,99498.31
2022-08-12T00:06:04.768Z,99506.28
2022-08-12T00:08:52.648Z,99509.88
2022-08-12T00:11:39.157Z,99500.47
2022-08-12T00:14:25.351Z,99498.78
2022-08-12T00:17:11.231Z,99488.81
2022-08-12T00:19:56.732Z,99480.56
2022-08-12T00:22:41.970Z,99486.06
2022-08-12T00:26:00.522Z,99477.44
2022-08-12T00:28:33.669Z,99464.84
2022-08-12T00:31:20.436Z,99470.28
2022-08-12T00:34:05.602Z,99451.16
2022-08-12T00:36:51.231Z,99447.53
2022-08-12T00:39:36.619Z,99453.91
2022-08-12T00:42:13.387Z,99442.88
2022-08-12T00:44:48.186Z,99430.13
2022-08-12T00:47:25.183Z,99427.97
2022-08-12T00:49:54.966Z,99433.63
2022-08-12T00:52:22.768Z,99420.94
2022-08-12T00:54:51.720Z,99404.31
2022-08-12T00:57:23.844Z,99405.00
2022-08-12T01:00:00.609Z,99407.97
2022-08-12T01:02:29.149Z,99413.19
2022-08-12T01:05:20.576Z,99400.31
2022-08-12T01:08:09.624Z,99413.13
2022-08-12T01:10:58.604Z,99425.81
2022-08-12T01:13:27.002Z,99426.97
2022-08-12T01:16:00.300Z,99414.66
2022-08-12T01:18:34.144Z,99415.09
2022-08-12T01:21:09.358Z,99405.97
2022-08-12T01:24:28.149Z,99395.69
2022-08-12T01:26:53.607Z,99370.75
2022-08-12T01:29:26.980Z,99367.56
2022-08-12T01:32:01.238Z,99371.28
2022-08-12T01:34:37.528Z,99371.84
2022-08-12T01:37:08.457Z,99359.09
2022-08-12T01:40:33.786Z,99349.38
2022-08-12T01:42:43.605Z,99348.13
2022-08-12T01:45:12.614Z,99363.84
2022-08-12T01:48:05.596Z,99371.28
2022-08-12T01:50:40.235Z,99372.72
2022-08-12T01:53:13.432Z,99369.56
2022-08-12T01:55:46.497Z,99374.16
2022-08-12T01:58:52.489Z,99366.00
2022-08-12T02:01:23.616Z,99375.94
2022-08-12T02:04:34.450Z,99365.78
2022-08-12T02:07:22.757Z,99372.47
2022-08-12T02:10:51.133Z,99378.06
2022-08-12T02:13:41.825Z,99374.88
2022-08-12T02:16:50.882Z,99361.59
2022-08-12T02:19:25.926Z,99346.03
2022-08-12T02:22:22.151Z,99338.25
2022-08-12T02:24:50.991Z,99335.66
2022-08-12T02:27:21.732Z,99337.25
2022-08-12T02:29:49.371Z,99335.41
2022-08-12T02:32:18.950Z,99334.69
2022-08-12T02:34:46.704Z,99326.03
2022-08-12T02:37:17.948Z,99314.34
2022-08-12T02:39:49.893Z,99330.41
2022-08-12T02:42:20.710Z,99286.78
2022-08-12T02:44:53.244Z,99280.31
2022-08-12T02:47:58.043Z,99293.69
2022-08-12T02:50:12.006Z,99311.84
2022-08-12T02:52:39.228Z,99320.06
2022-08-12T02:55:28.911Z,99321.91
2022-08-12T02:58:12.527Z,99323.75
2022-08-12T03:00:42.842Z,99306.84
2022-08-12T03:03:12.730Z,99308.81
2022-08-12T03:05:52.503Z,99301.81
2022-08-12T03:08:32.504Z,99286.84
2022-08-12T03:11:04.277Z,99278.91
2022-08-12T03:13:39.107Z,99279.53
2022-08-12T03:16:07.777Z,99279.44
2022-08-12T03:18:35.609Z,99281.75
2022-08-12T03:21:04.056Z,99282.47
2022-08-12T03:23:31.627Z,99275.38
2022-08-12T03:26:03.177Z,99289.59
2022-08-12T03:28:50.743Z,99303.06
2022-08-12T03:31:25.002Z,99323.47
2022-08-12T03:34:02.055Z,99313.44
2022-08-12T03:36:34.951Z,99313.97
2022-08-12T03:39:16.187Z,99332.16
2022-08-12T03:42:01.102Z,99336.63
2022-08-12T03:44:50.405Z,99353.34
2022-08-12T03:47:50.235Z,99346.72
2022-08-12T03:50:37.108Z,99352.47
2022-08-12T03:53:24.941Z,99355.63
2022-08-12T03:56:11.469Z,99353.22
2022-08-12T03:58:58.274Z,99350.88
2022-08-12T04:01:29.066Z,99349.00
2022-08-12T04:03:58.258Z,99344.16
2022-08-12T04:06:35.082Z,99361.84
2022-08-12T04:09:15.764Z,99365.03
2022-08-12T04:12:04.157Z,99359.13
2022-08-12T04:14:32.789Z,99348.78
2022-08-12T04:17:00.277Z,99344.72
2022-08-12T04:19:29.459Z,99341.41
2022-08-12T04:22:01.851Z,99312.91
2022-08-12T04:24:40.691Z,99293.50
2022-08-12T04:27:10.917Z,99297.31
2022-08-12T04:30:29.750Z,99294.97
2022-08-12T04:32:28.477Z,99274.03
2022-08-12T04:34:58.425Z,99269.16
2022-08-12T04:37:25.173Z,99271.50
2022-08-12T04:39:54.606Z,99271.75
2022-08-12T04:42:21.843Z,99268.88
2022-08-12T04:44:48.836Z,99273.81
2022-08-12T04:47:17.208Z,99290.81
2022-08-12T04:49:46.248Z,99306.38
2022-08-12T04:52:14.324Z,99321.41
2022-08-12T04:54:43.982Z,99320.63
2022-08-12T04:57:11.766Z,99312.75
2022-08-12T04:59:47.300Z,99321.25
2022-08-12T05:02:21.428Z,99318.22
2022-08-12T05:04:52.157Z,99332.22
2022-08-12T05:07:20.375Z,99339.94
2022-08-12T05:09:59.804Z,99344.41
2022-08-12T05:12:39.815Z,99338.22
2022-08-12T05:15:19.006Z,99328.84
2022-08-12T05:17:55.675Z,99317.59
2022-08-12T05:20:23.374Z,99322.06
2022-08-12T05:22:53.181Z,99321.38
2022-08-12T05:25:26.889Z,99312.06
2022-08-12T05:27:58.425Z,99319.22
2022-08-12T05:30:27.539Z,99321.53
2022-08-12T05:32:55.810Z,99313.03
2022-08-12T05:35:30.253Z,99314.63
2022-08-12T05:38:15.360Z,99309.25
2022-08-12T05:40:42.267Z,99312.88
2022-08-12T05:43:09.048Z,99321.22
2022-08-12T05:45:35.758Z,99320.28
2022-08-12T05:48:02.878Z,99322.84
2022-08-12T05:50:29.641Z,99324.94
2022-08-12T05:52:56.545Z,99318.00
2022-08-12T05:55:26.915Z,99322.84
2022-08-12T05:57:56.462Z,99331.59
2022-08-12T06:00:25.897Z,99323.31
2022-08-12T06:02:57.222Z,99347.94
2022-08-12T06:05:24.022Z,99355.09
2022-08-12T06:07:59.519Z,99369.47
2022-08-12T06:10:32.436Z,99400.00
2022-08-12T06:13:04.792Z,99430.66
2022-08-12T06:15:33.179Z,99463.28
2022-08-12T06:18:13.874Z,99472.91
2022-08-12T06:20:48.664Z,99479.34
2022-08-12T06:23:16.083Z,99516.69
2022-08-12T06:25:46.035Z,99552.75
2022-08-12T06:28:17.768Z,99589.56
2022-08-12T06:31:02.623Z,99612.16
2022-08-12T06:33:55.465Z,99620.19
2022-08-12T06:36:29.937Z,99627.44
2022-08-12T06:38:59.474Z,99636.06
2022-08-12T06:42:02.544Z,99634.63
2022-08-12T06:44:32.769Z,99653.72
2022-08-12T06:46:59.901Z,99657.78
2022-08-12T06:49:28.361Z,99673.69
2022-08-12T06:51:57.086Z,99669.81
2022-08-12T06:54:31.151Z,99676.97
2022-08-12T06:57:55.957Z,99678.72
2022-08-12T06:59:49.444Z,99684.34
2022-08-12T07:02:16.078Z,99687.13
2022-08-12T07:04:43.553Z,99697.50
2022-08-12T07:07:12.331Z,99707.69
2022-08-12T07:10:03.613Z,99706.59
2022-08-12T07:12:30.500Z,99706.75
2022-08-12T07:14:58.600Z,99721.09
2022-08-12T07:17:26.182Z,99731.81
2022-08-12T07:19:53.925Z,99723.97
2022-08-12T07:22:23.262Z,99733.19
2022-08-12T07:25:10.139Z,99742.00
2022-08-12T07:27:43.488Z,99725.91
2022-08-12T07:30:10.789Z,99731.59
2022-08-12T07:32:37.467Z,99739.66
2022-08-12T07:35:04.448Z,99749.19
2022-08-12T07:37:31.495Z,99752.44
2022-08-12T07:39:59.628Z,99751.97
2022-08-12T07:42:29.200Z,99767.94
2022-08-12T07:44:56.559Z,99768.41
2022-08-12T07:47:24.271Z,99767.75
2022-08-12T07:50:03.280Z,99761.41
2022-08-12T07:52:33.223Z,99782.81
2022-08-12T07:55:03.905Z,99771.47
2022-08-12T07:57:32.674Z,99773.59
2022-08-12T08:00:11.113Z,99788.66
2022-08-12T08:02:42.197Z,99766.22
2022-08-12T08:05:09.140Z,99772.00
2022-08-12T08:07:35.843Z,99790.25
2022-08-12T08:10:06.879Z,99793.28
2022-08-12T08:12:52.444Z,99777.53
2022-08-12T08:15:20.282Z,99796.72
2022-08-12T08:18:02.830Z,99815.75
2022-08-12T08:20:35.802Z,99795.72
2022-08-12T08:23:07.242Z,99798.31
2022-08-12T08:25:37.649Z,99806.44
2022-08-12T08:28:18.873Z,99812.38
2022-08-12T08:30:50.415Z,99795.19
2022-08-12T08:33:23.623Z,99800.91
2022-08-12T08:36:16.397Z,99805.06
2022-08-12T08:38:53.240Z,99806.44
2022-08-12T08:42:16.101Z,99819.88
2022-08-12T08:44:30.279Z,99821.97
2022-08-12T08:46:56.944Z,99821.53
2022-08-12T08:49:23.697Z,99823.56
2022-08-12T08:51:50.379Z,99836.78
2022-08-12T08:54:17.307Z,99843.63
2022-08-12T08:56:46.360Z,99857.47
2022-08-12T08:59:14.141Z,99862.97
2022-08-12T09:01:41.203Z,99861.25
2022-08-12T09:05:11.866Z,99869.72
2022-08-12T09:07:16.817Z,99871.28
2022-08-12T09:10:02.714Z,99869.72
2022-08-12T09:12:55.214Z,99888.06
2022-08-12T09:15:35.436Z,99894.41
2022-08-12T09:18:08.686Z,99891.22
2022-08-12T09:20:37.208Z,99897.69
2022-08-12T09:23:08.007Z,99892.25
2022-08-12T09:25:52.404Z,99874.78
2022-08-12T09:28:21.308Z,99894.28
2022-08-12T09:31:01.052Z,99900.28
2022-08-12T09:34:31.064Z,99899.50
2022-08-12T09:36:30.657Z,99891.47
2022-08-12T09:38:58.512Z,99887.28
2022-08-12T09:42:33.289Z,99903.25
2022-08-12T09:44:38.305Z,99923.41
2022-08-12T09:47:10.830Z,99915.66
2022-08-12T09:49:42.341Z,99922.44
2022-08-12T09:52:11.681Z,99921.91
2022-08-12T09:54:38.342Z,99924.81
2022-08-12T09:58:45.078Z,99926.44
2022-08-12T10:00:14.016Z,99917.38
2022-08-12T10:03:03.770Z,99919.06
2022-08-12T10:06:26.693Z,99932.19
2022-08-12T10:08:22.015Z,99950.84
2022-08-12T10:11:09.225Z,99935.75
2022-08-12T10:13:48.711Z,99935.75
2022-08-12T10:16:22.094Z,99950.88
2022-08-12T10:18:51.663Z,99954.31
2022-08-12T10:21:35.795Z,99956.59
2022-08-12T10:24:06.488Z,99937.03
2022-08-12T10:26:54.767Z,99939.50
2022-08-12T10:30:37.385Z,99935.53
2022-08-12T10:32:44.979Z,99942.69
2022-08-12T10:35:17.361Z,99945.84
2022-08-12T10:38:33.381Z,99935.47
2022-08-12T10:40:37.887Z,99941.09
2022-08-12T10:43:23.370Z,99947.38
2022-08-12T10:45:51.911Z,99934.59
2022-08-12T10:48:26.748Z,99937.88
2022-08-12T10:52:03.901Z,99942.94
2022-08-12T10:54:00.892Z,99932.91
2022-08-12T10:56:35.428Z,99948.00
2022-08-12T10:59:05.334Z,99939.50
2022-08-12T11:04:18.180Z,99927.91
2022-08-12T11:04:41.358Z,99925.28
2022-08-12T11:08:34.206Z,99919.31
2022-08-12T11:10:01.447Z,99916.78
2022-08-12T11:12:57.218Z,99914.50
2022-08-12T11:15:33.004Z,99915.44
2022-08-12T11:18:12.036Z,99908.34
2022-08-12T11:20:46.004Z,99908.88
2022-08-12T11:23:25.388Z,99921.16
2022-08-12T11:26:05.436Z,99917.84
2022-08-12T11:28:34.104Z,99915.63
2022-08-12T11:31:09.728Z,99907.31
2022-08-12T11:34:06.373Z,99914.13
2022-08-12T11:36:26.323Z,99919.28
2022-08-12T11:38:53.412Z,99929.56
2022-08-12T11:41:31.042Z,99921.25
2022-08-12T11:44:12.706Z,99918.88
2022-08-12T11:46:51.479Z,99914.91
2022-08-12T11:49:26.789Z,99916.94
2022-08-12T11:51:58.664Z,99916.03
2022-08-12T11:54:29.544Z,99917.59
2022-08-12T11:56:59.884Z,99920.44
2022-08-12T12:02:19.245Z,99907.03
2022-08-12T12:04:52.303Z,99905.88
2022-08-12T12:07:33.714Z,99910.66
2022-08-12T12:10:09.960Z,99907.56
2022-08-12T12:12:38.037Z,99912.72
2022-08-12T12:15:09.714Z,99916.66
2022-08-12T12:17:38.768Z,99921.44
2022-08-12T12:20:12.476Z,99920.69
2022-08-12T12:22:41.028Z,99924.97
2022-08-12T12:25:13.747Z,99923.44
2022-08-12T12:28:04.945Z,99935.38
2022-08-12T12:30:33.931Z,99933.41
2022-08-12T12:33:00.727Z,99931.44
2022-08-12T12:36:16.452Z,99925.50
2022-08-12T12:38:15.271Z,99930.22
2022-08-12T12:40:50.372Z,99922.31
2022-08-12T12:43:29.043Z,99923.13
2022-08-12T12:46:05.435Z,99918.28
2022-08-12T12:48:32.165Z,99913.56
2022-08-12T12:51:48.345Z,99912.78
2022-08-12T12:54:07.949Z,99911.94
2022-08-12T12:56:42.967Z,99912.78
2022-08-12T12:59:55.810Z,99910.81
2022-08-12T13:01:59.327Z,99915.13
2022-08-12T13:04:35.091Z,99913.59
2022-08-12T13:07:05.916Z,99907.59
2022-08-12T13:09:36.078Z,99914.75
2022-08-12T13:12:06.068Z,99913.19
2022-08-12T13:14:35.259Z,99906.81
2022-08-12T13:17:06.455Z,99908.03
2022-08-12T13:19:45.407Z,99907.25
2022-08-12T13:22:23.669Z,99908.81
2022-08-12T13:24:55.441Z,99904.03
2022-08-12T13:27:36.383Z,99906.03
2022-08-12T13:30:23.626Z,99892.50
2022-08-12T13:32:58.940Z,99895.72
2022-08-12T13:35:33.241Z,99899.28
2022-08-12T13:38:14.153Z,99903.25
2022-08-12T13:40:41.166Z,99904.84
2022-08-12T13:43:07.875Z,99903.25
2022-08-12T13:45:40.794Z,99902.06
2022-08-12T13:48:08.387Z,99904.84
2022-08-12T13:50:41.169Z,99902.47
2022-08-12T13:53:24.873Z,99912.00
2022-08-12T13:56:01.927Z,99903.28
2022-08-12T13:58:33.078Z,99906.38
2022-08-12T14:01:05.788Z,99913.94
2022-08-12T14:03:51.033Z,99909.97
2022-08-12T14:06:20.920Z,99918.25
2022-08-12T14:08:53.448Z,99919.06
2022-08-12T14:11:25.269Z,99915.84
2022-08-12T14:14:05.700Z,99920.63
2022-08-12T14:16:49.149Z,99916.56
2022-08-12T14:19:24.448Z,99918.03
2022-08-12T14:22:01.017Z,99919.69
2022-08-12T14:24:40.076Z,99910.06
2022-08-12T14:27:10.521Z,99911.22
2022-08-12T14:30:04.635Z,99923.53
2022-08-12T14:32:31.344Z,99922.06
2022-08-12T14:34:58.046Z,99920.63
2022-08-12T14:37:57.743Z,99912.72
2022-08-12T14:40:18.327Z,99912.75
2022-08-12T14:42:46.970Z,99906.44
2022-08-12T14:45:13.979Z,99901.66
2022-08-12T14:47:58.596Z,99909.97
2022-08-12T14:50:41.230Z,99912.00
2022-08-12T14:55:18.226Z,99915.56
2022-08-12T14:59:20.517Z,99905.66
2022-08-12T15:01:52.072Z,99897.72
2022-08-12T15:04:26.230Z,99896.88
2022-08-12T15:06:53.407Z,99912.31
2022-08-12T15:09:27.250Z,99909.00
2022-08-12T15:12:03.395Z,99915.69
2022-08-12T15:14:31.478Z,99909.72
2022-08-12T15:17:00.604Z,99920.38
2022-08-12T15:20:28.678Z,99918.47
2022-08-12T15:22:39.581Z,99921.56
2022-08-12T15:25:07.539Z,99929.19
2022-08-12T15:28:05.094Z,99933.25
2022-08-12T15:30:31.655Z,99937.53
2022-08-12T15:32:59.217Z,99938.72
2022-08-12T15:35:38.109Z,99937.94
2022-08-12T15:38:17.275Z,99933.13
2022-08-12T15:40:53.586Z,99935.56
2022-08-12T15:44:16.946Z,99938.28
2022-08-12T15:46:15.200Z,99938.72
2022-08-12T15:48:46.677Z,99940.84
2022-08-12T15:51:58.324Z,99938.84
2022-08-12T15:54:34.400Z,99938.06
2022-08-12T15:57:06.019Z,99933.97
2022-08-12T16:00:00.425Z,99942.78
2022-08-12T16:02:23.032Z,99942.81
2022-08-12T16:04:54.113Z,99940.28
2022-08-12T16:07:25.914Z,99942.78
2022-08-12T16:10:06.941Z,99947.16
2022-08-12T16:12:54.801Z,99952.34
2022-08-12T16:15:24.942Z,99943.69
2022-08-12T16:18:15.012Z,99940.06
2022-08-12T16:20:46.424Z,99938.94
2022-08-12T16:23:36.114Z,99942.16
2022-08-12T16:26:14.278Z,99950.84
2022-08-12T16:28:43.346Z,99942.13
2022-08-12T16:31:14.338Z,99939.00
2022-08-12T16:33:56.817Z,99940.56
2022-08-12T16:36:26.818Z,99938.22
2022-08-12T16:38:53.452Z,99923.94
2022-08-12T16:41:21.730Z,99929.09
2022-08-12T16:43:48.522Z,99928.69
2022-08-12T16:46:31.151Z,99923.97
2022-08-12T16:49:08.530Z,99921.13
2022-08-12T16:51:40.671Z,99917.59
2022-08-12T16:54:16.057Z,99911.59
2022-08-12T16:56:55.437Z,99915.16
2022-08-12T16:59:30.582Z,99916.34
2022-08-12T17:01:58.628Z,99903.63
2022-08-12T17:04:27.436Z,99915.50
2022-08-12T17:06:54.412Z,99907.16
2022-08-12T17:09:21.928Z,99913.94
2022-08-12T17:11:49.660Z,99908.72
2022-08-12T17:14:23.000Z,99911.81
2022-08-12T17:16:52.055Z,99919.00
2022-08-12T17:20:29.279Z,99909.47
2022-08-12T17:22:09.093Z,99911.75
2022-08-12T17:24:40.008Z,99913.31
2022-08-12T17:27:16.313Z,99922.91
2022-08-12T17:30:02.861Z,99923.22
2022-08-12T17:32:33.743Z,99920.31
2022-08-12T17:35:20.999Z,99915.47
2022-08-12T17:37:48.875Z,99923.41
2022-08-12T17:40:34.913Z,99923.34
2022-08-12T17:43:54.701Z,99923.91
2022-08-12T17:45:56.319Z,99917.56
2022-08-12T17:48:34.651Z,99920.03
2022-08-12T17:51:04.972Z,99914.66
2022-08-12T17:53:43.678Z,99907.34
2022-08-12T17:56:24.201Z,99914.91
2022-08-12T17:58:58.481Z,99921.84
2022-08-12T18:01:29.038Z,99917.84
2022-08-12T18:04:20.346Z,99918.59
2022-08-12T18:06:49.174Z,99923.91
2022-08-12T18:09:18.207Z,99917.66
2022-08-12T18:12:08.735Z,99917.31
2022-08-12T18:14:38.246Z,99918.59
2022-08-12T18:17:09.999Z,99921.50
2022-08-12T18:20:05.421Z,99926.75
2022-08-12T18:22:32.749Z,99941.22
2022-08-12T18:25:04.150Z,99938.00
2022-08-12T18:27:45.742Z,99941.38
2022-08-12T18:30:20.362Z,99946.19
2022-08-12T18:33:03.427Z,99943.78
2022-08-12T18:35:47.771Z,99953.31
2022-08-12T18:38:22.599Z,99957.56
2022-08-12T18:41:11.150Z,99958.31
2022-08-12T18:44:01.137Z,99956.13
2022-08-12T18:46:37.337Z,99956.50
2022-08-12T18:49:18.093Z,99956.88
2022-08-12T18:52:04.073Z,99947.19
2022-08-12T18:54:35.476Z,99951.69
2022-08-12T18:57:19.831Z,99942.13
2022-08-12T19:00:06.439Z,99938.69
2022-08-12T19:02:40.389Z,99939.41
2022-08-12T19:05:11.592Z,99939.59
2022-08-12T19:08:00.663Z,99934.63
2022-08-12T19:10:32.050Z,99934.19
2022-08-12T19:13:23.416Z,99936.34
2022-08-12T19:15:53.494Z,99938.53
2022-08-12T19:18:22.014Z,99946.88
2022-08-12T19:20:50.376Z,99950.88
2022-08-12T19:23:21.495Z,99955.09
2022-08-12T19:26:00.830Z,99955.88
2022-08-12T19:28:35.596Z,99961.78
2022-08-12T19:31:56.300Z,99953.03
2022-08-12T19:38:04.513Z,99941.66
2022-08-12T19:40:20.266Z,99937.94
2022-08-12T19:43:01.755Z,99928.06
2022-08-12T19:45:43.370Z,99932.44
2022-08-12T19:48:20.362Z,99930.66
2022-08-12T19:50:52.275Z,99933.28
2022-08-12T19:53:22.868Z,99926.16
2022-08-12T19:55:53.095Z,99926.16
2022-08-12T19:58:22.316Z,99926.09
2022-08-12T20:00:53.595Z,99921.66
2022-08-12T20:03:38.326Z,99912.03
2022-08-12T20:06:11.196Z,99913.41
2022-08-12T20:08:48.837Z,99913.31
2022-08-12T20:12:11.209Z,99903.34
2022-08-12T20:14:09.484Z,99909.78
2022-08-12T20:19:52.147Z,99908.72
2022-08-12T20:22:33.313Z,99907.41
2022-08-12T20:25:10.446Z,99903.41
2022-08-12T20:28:05.085Z,99901.34
2022-08-12T20:30:37.445Z,99904.91
2022-08-12T20:33:23.314Z,99907.59
2022-08-12T20:36:14.171Z,99906.88
2022-08-12T20:38:46.777Z,99902.88
2022-08-12T20:41:16.437Z,99910.59
2022-08-12T20:43:48.455Z,99906.44
2022-08-12T20:46:17.453Z,99907.13
2022-08-12T20:48:55.205Z,99911.31
2022-08-12T20:51:27.523Z,99898.28
2022-08-12T20:53:58.987Z,99898.97
2022-08-12T20:56:35.496Z,99892.47
2022-08-12T20:59:10.466Z,99885.31
2022-08-12T21:01:47.845Z,99882.66
2022-08-12T21:04:36.305Z,99874.63
2022-08-12T21:07:09.619Z,99875.38
2022-08-12T21:09:50.452Z,99873.72
2022-08-12T21:12:27.701Z,99873.97
2022-08-12T21:15:23.760Z,99868.03
2022-08-12T21:18:00.978Z,99862.09
2022-08-12T21:20:34.877Z,99865.34
2022-08-12T21:23:06.100Z,99863.47
2022-08-12T21:25:35.997Z,99859.38
2022-08-12T21:28:12.481Z,99860.09
2022-08-12T21:31:11.636Z,99846.47
2022-08-12T21:33:58.950Z,99841.13
2022-08-12T21:36:34.955Z,99833.78
2022-08-12T21:39:20.573Z,99829.69
2022-08-12T21:41:53.308Z,99835.75
2022-08-12T21:45:44.532Z,99835.97
2022-08-12T21:47:19.933Z,99841.22
2022-08-12T21:50:04.187Z,99841.78
2022-08-12T21:52:49.293Z,99840.91
2022-08-12T21:55:20.220Z,99843.19
2022-08-12T21:57:53.951Z,99833.56
2022-08-12T22:00:32.364Z,99833.34
2022-08-12T22:04:04.261Z,99828.03
2022-08-12T22:06:20.359Z,99816.13
2022-08-12T22:08:59.480Z,99812.78
2022-08-12T22:11:41.986Z,99809.38
2022-08-12T22:14:17.887Z,99804.00
2022-08-12T22:16:51.474Z,99808.22
2022-08-12T22:19:19.612Z,99799.88
2022-08-12T22:21:54.940Z,99791.41
2022-08-12T22:24:26.366Z,99787.50
2022-08-12T22:27:17.912Z,99785.88
2022-08-12T22:30:15.905Z,99762.69
2022-08-12T22:32:51.611Z,99763.00
2022-08-12T22:35:56.180Z,99759.13
2022-08-12T22:38:25.835Z,99753.53
2022-08-12T22:41:07.763Z,99753.41
2022-08-12T22:43:59.056Z,99754.53
2022-08-12T22:46:52.677Z,99752.47
2022-08-12T22:49:37.124Z,99749.97
2022-08-12T22:52:13.201Z,99751.09
2022-08-12T22:54:46.343Z,99749.97
2022-08-12T22:57:53.173Z,99737.66
2022-08-12T23:00:24.120Z,99737.81
2022-08-12T23:02:56.767Z,99723.63
2022-08-12T23:05:56.704Z,99729.13
2022-08-12T23:08:18.151Z,99722.97
2022-08-12T23:10:47.060Z,99713.63
2022-08-12T23:13:43.069Z,99717.03
2022-08-12T23:16:27.789Z,99717.56
2022-08-12T23:18:57.662Z,99712.66
2022-08-12T23:21:24.995Z,99702.81
2022-08-12T23:24:10.103Z,99702.56
2022-08-12T23:26:55.881Z,99714.88
2022-08-12T23:29:25.952Z,99710.25
2022-08-12T23:32:10.951Z,99695.38
2022-08-12T23:34:37.769Z,99695.09
2022-08-12T23:37:09.716Z,99691.75
2022-08-12T23:40:15.583Z,99680.00
2022-08-12T23:42:41.349Z,99686.16
2022-08-12T23:45:20.208Z,99680.91
2022-08-12T23:47:59.173Z,99676.75
2022-08-12T23:50:33.807Z,99674.69
2022-08-12T23:53:22.358Z,99667.47
2022-08-12T23:55:51.959Z,99666.22
2022-08-12T23:58:26.385Z,99667.06
